Time;durP1;ratioP1;P1;durP2;ratioP2;P2;SDS_P1;SDS_P2;PMS_P1;PMS_P2;Temp;Humidity;BMP_temperature;BMP_pressure;BME280_temperature;BME280_humidity;BME280_pressure;Samples;Min_cycle;Max_cycle;Signal;HPM_P1;HPM_P2
2022/07/07 00:02:08;;;;;;;10.55;8.50;;;16.80;99.90;;;;;;5079363;28;20066;-70
2022/07/07 00:04:34;;;;;;;10.65;8.90;;;16.80;99.90;;;;;;5091898;28;20040;-70
2022/07/07 00:07:00;;;;;;;11.90;9.32;;;16.80;99.90;;;;;;5071312;28;20065;-70
2022/07/07 00:09:27;;;;;;;10.57;9.32;;;16.80;99.90;;;;;;5080476;28;20128;-70
2022/07/07 00:11:53;;;;;;;10.18;9.20;;;16.80;99.90;;;;;;5089237;28;20077;-70
2022/07/07 00:14:18;;;;;;;9.48;8.02;;;16.80;99.90;;;;;;5093792;28;20043;-70
2022/07/07 00:16:44;;;;;;;12.20;8.63;;;16.90;99.90;;;;;;5092558;28;20054;-70
2022/07/07 00:19:10;;;;;;;12.27;8.48;;;16.90;99.90;;;;;;5091482;28;20682;-70
2022/07/07 00:21:35;;;;;;;10.57;9.52;;;16.80;99.90;;;;;;5086023;28;20579;-69
2022/07/07 00:24:01;;;;;;;11.27;8.85;;;16.90;99.90;;;;;;5111160;28;20036;-70
2022/07/07 00:26:30;;;;;;;13.88;9.55;;;16.80;99.90;;;;;;5091102;28;20036;-69
2022/07/07 00:28:55;;;;;;;12.27;8.55;;;16.80;99.90;;;;;;5059076;28;20024;-69
2022/07/07 00:31:21;;;;;;;11.07;8.95;;;16.90;99.90;;;;;;5081511;28;20392;-69
2022/07/07 00:33:46;;;;;;;9.70;8.45;;;16.90;99.90;;;;;;5076479;28;20048;-69
2022/07/07 00:36:12;;;;;;;9.30;8.38;;;16.80;99.90;;;;;;5080204;28;20466;-70
2022/07/07 00:38:38;;;;;;;8.85;7.97;;;16.80;99.90;;;;;;5098889;28;20039;-70
2022/07/07 00:41:03;;;;;;;11.70;8.40;;;16.70;99.90;;;;;;5089943;28;20040;-70
2022/07/07 00:43:41;;;;;;;10.35;8.43;;;16.80;99.90;;;;;;5085969;28;20437;-69
2022/07/07 00:46:07;;;;;;;9.57;8.00;;;16.80;99.90;;;;;;5096127;28;20075;-69
2022/07/07 00:48:35;;;;;;;11.32;8.80;;;16.70;99.90;;;;;;5090102;28;20044;-70
2022/07/07 00:51:01;;;;;;;12.20;8.32;;;16.60;99.90;;;;;;5110222;28;20081;-70
2022/07/07 00:53:26;;;;;;;10.70;9.20;;;16.70;99.90;;;;;;5105862;28;20075;-69
2022/07/07 00:55:52;;;;;;;11.55;8.35;;;16.70;99.90;;;;;;5063783;28;20036;-70
2022/07/07 00:58:17;;;;;;;8.27;7.35;;;16.60;99.90;;;;;;5111752;28;20043;-70
2022/07/07 01:00:43;;;;;;;10.13;6.82;;;16.60;99.90;;;;;;5110623;27;20158;-70
2022/07/07 01:03:09;;;;;;;10.65;7.10;;;16.60;99.90;;;;;;5077198;28;20381;-70
2022/07/07 01:05:38;;;;;;;10.80;6.72;;;16.60;99.90;;;;;;5093661;28;20046;-70
2022/07/07 01:08:04;;;;;;;7.18;6.22;;;16.60;99.90;;;;;;5094171;28;20484;-69
2022/07/07 01:10:31;;;;;;;11.07;7.43;;;16.60;99.90;;;;;;5081702;28;20051;-69
2022/07/07 01:13:01;;;;;;;7.65;6.72;;;16.60;99.90;;;;;;5088781;28;20047;-69
2022/07/07 01:15:27;;;;;;;10.40;7.85;;;16.60;99.90;;;;;;5076652;28;20117;-69
2022/07/07 01:17:53;;;;;;;7.60;5.78;;;16.60;99.90;;;;;;5093760;28;20392;-69
2022/07/07 01:20:20;;;;;;;8.50;6.18;;;16.60;99.90;;;;;;5087060;28;20047;-69
2022/07/07 01:22:48;;;;;;;6.03;4.15;;;16.60;99.90;;;;;;5094228;28;20034;-69
2022/07/07 01:25:13;;;;;;;4.55;3.92;;;16.60;99.90;;;;;;5091070;28;20444;-69
2022/07/07 01:27:39;;;;;;;4.78;4.28;;;16.70;99.90;;;;;;5089867;28;20044;-69
2022/07/07 01:30:05;;;;;;;7.40;3.35;;;16.60;99.90;;;;;;5098526;28;20496;-69
2022/07/07 01:32:30;;;;;;;5.38;3.53;;;16.60;99.90;;;;;;5093820;28;20059;-69
2022/07/07 01:34:56;;;;;;;7.75;3.85;;;16.60;99.90;;;;;;5090393;28;20144;-69
2022/07/07 01:37:24;;;;;;;5.30;3.67;;;16.50;99.90;;;;;;5121444;27;20092;-69
2022/07/07 01:39:51;;;;;;;5.28;3.47;;;16.40;99.90;;;;;;5109317;28;20031;-69
2022/07/07 01:42:16;;;;;;;7.88;4.20;;;16.40;99.90;;;;;;5076359;28;20054;-69
2022/07/07 01:44:44;;;;;;;5.97;3.00;;;16.40;99.90;;;;;;5087318;28;20036;-69
2022/07/07 01:47:11;;;;;;;5.85;3.63;;;16.50;99.90;;;;;;5076159;28;20048;-69
2022/07/07 01:49:37;;;;;;;6.60;3.60;;;16.50;99.90;;;;;;5091699;28;20503;-69
2022/07/07 01:52:04;;;;;;;5.63;3.20;;;16.40;99.90;;;;;;5086158;28;20596;-69
2022/07/07 01:54:32;;;;;;;4.55;3.38;;;16.50;99.90;;;;;;5089690;28;20071;-69
2022/07/07 01:56:58;;;;;;;5.93;3.50;;;16.40;99.90;;;;;;5092884;28;20055;-69
2022/07/07 01:59:23;;;;;;;3.40;3.00;;;16.40;99.90;;;;;;5092533;28;20048;-69
2022/07/07 02:01:49;;;;;;;5.93;3.05;;;16.40;99.90;;;;;;5108443;28;20046;-69
2022/07/07 02:04:14;;;;;;;4.30;2.83;;;16.40;99.90;;;;;;5076140;28;20047;-69
2022/07/07 02:06:40;;;;;;;4.85;3.35;;;16.40;99.90;;;;;;5092990;28;20559;-69
2022/07/07 02:09:07;;;;;;;6.03;3.50;;;16.40;99.90;;;;;;5079528;28;20039;-69
2022/07/07 02:11:33;;;;;;;7.60;4.03;;;16.40;99.90;;;;;;5092132;28;20036;-69
2022/07/07 02:13:58;;;;;;;6.40;3.13;;;16.40;99.90;;;;;;5090031;28;20081;-69
2022/07/07 02:16:25;;;;;;;6.50;3.25;;;16.40;99.90;;;;;;5093434;28;20075;-69
2022/07/07 02:18:57;;;;;;;5.38;3.45;;;16.40;99.90;;;;;;5085210;28;20074;-69
2022/07/07 02:21:23;;;;;;;6.50;3.10;;;16.40;99.90;;;;;;5090779;28;20059;-69
2022/07/07 02:23:52;;;;;;;4.35;3.38;;;16.30;99.90;;;;;;5110657;28;20148;-69
2022/07/07 02:26:18;;;;;;;5.43;3.33;;;16.30;99.90;;;;;;5088111;28;20043;-69
2022/07/07 02:28:44;;;;;;;6.43;3.33;;;16.30;99.90;;;;;;5110526;28;20330;-69
2022/07/07 02:31:10;;;;;;;4.90;3.20;;;16.30;99.90;;;;;;5111249;28;20050;-69
2022/07/07 02:33:36;;;;;;;3.58;3.08;;;16.30;99.90;;;;;;5105856;28;20131;-69
2022/07/07 02:36:03;;;;;;;5.55;2.88;;;16.30;99.90;;;;;;5074354;28;20047;-69
2022/07/07 02:38:30;;;;;;;5.95;2.95;;;16.40;99.90;;;;;;5072904;28;20040;-69
2022/07/07 02:40:56;;;;;;;6.18;3.15;;;16.30;99.90;;;;;;5091547;28;20063;-69
2022/07/07 02:43:22;;;;;;;7.07;3.20;;;16.30;99.90;;;;;;5086633;28;20036;-69
2022/07/07 02:45:49;;;;;;;5.50;3.20;;;16.40;99.90;;;;;;5091124;28;20152;-69
2022/07/07 02:48:20;;;;;;;7.15;3.80;;;16.40;99.90;;;;;;5089645;28;20430;-69
2022/07/07 02:50:46;;;;;;;5.28;2.97;;;16.30;99.90;;;;;;5101537;28;20039;-70
2022/07/07 02:53:12;;;;;;;5.07;2.53;;;16.40;99.90;;;;;;5091036;28;20036;-70
2022/07/07 02:55:39;;;;;;;6.53;3.45;;;16.40;99.90;;;;;;5092888;28;20146;-69
2022/07/07 02:58:06;;;;;;;7.60;3.50;;;16.40;99.90;;;;;;5104246;28;20046;-70
2022/07/07 03:00:35;;;;;;;6.03;3.78;;;16.40;99.90;;;;;;5090613;28;20126;-69
2022/07/07 03:03:02;;;;;;;7.15;3.30;;;16.30;99.90;;;;;;5103545;28;20042;-69
2022/07/07 03:05:28;;;;;;;9.27;3.70;;;16.30;99.90;;;;;;5103650;28;20071;-69
2022/07/07 03:07:53;;;;;;;8.55;3.95;;;16.30;99.90;;;;;;5087984;28;20750;-69
2022/07/07 03:10:19;;;;;;;8.43;3.40;;;16.30;99.90;;;;;;5083167;28;20032;-69
2022/07/07 03:12:45;;;;;;;8.40;3.03;;;16.20;99.90;;;;;;5087594;28;20047;-69
2022/07/07 03:15:11;;;;;;;8.93;3.28;;;16.20;99.90;;;;;;5092578;28;20046;-69
2022/07/07 03:17:41;;;;;;;7.57;3.25;;;16.30;99.90;;;;;;5092567;28;20410;-69
2022/07/07 03:20:08;;;;;;;7.90;3.03;;;16.20;99.90;;;;;;5109776;28;20493;-69
2022/07/07 03:22:34;;;;;;;7.68;3.40;;;16.20;99.90;;;;;;5106804;28;20086;-69
2022/07/07 03:24:59;;;;;;;6.95;3.00;;;16.30;99.90;;;;;;5088032;28;20063;-70
2022/07/07 03:27:25;;;;;;;5.78;2.50;;;16.20;99.90;;;;;;5092176;28;20047;-69
2022/07/07 03:29:51;;;;;;;4.63;2.50;;;16.20;99.90;;;;;;5084291;28;20027;-70
2022/07/07 03:32:17;;;;;;;7.50;2.53;;;16.20;99.90;;;;;;5089639;28;20044;-69
2022/07/07 03:34:43;;;;;;;7.13;2.70;;;16.20;99.90;;;;;;5092115;28;20565;-69
2022/07/07 03:37:08;;;;;;;4.97;2.28;;;16.20;99.90;;;;;;5080374;28;20040;-69
2022/07/07 03:39:34;;;;;;;5.15;2.17;;;16.30;99.90;;;;;;5077794;28;20052;-69
2022/07/07 03:41:59;;;;;;;7.63;2.65;;;16.20;99.90;;;;;;5087954;28;20035;-69
2022/07/07 03:44:25;;;;;;;4.03;2.30;;;16.20;99.90;;;;;;5102268;28;20032;-69
2022/07/07 03:46:51;;;;;;;5.53;2.75;;;16.20;99.90;;;;;;5085326;28;20043;-69
2022/07/07 03:49:16;;;;;;;7.75;2.50;;;16.20;99.90;;;;;;5095022;28;20079;-69
2022/07/07 03:51:42;;;;;;;8.35;2.72;;;16.20;99.90;;;;;;5096274;28;20078;-69
2022/07/07 03:54:07;;;;;;;4.15;2.20;;;16.20;99.90;;;;;;5090069;28;20063;-69
2022/07/07 03:56:33;;;;;;;6.47;2.60;;;16.20;99.90;;;;;;5091310;28;20048;-69
2022/07/07 03:58:58;;;;;;;6.25;2.13;;;16.10;99.90;;;;;;5094326;28;20084;-68
2022/07/07 04:01:24;;;;;;;7.10;2.00;;;16.10;99.90;;;;;;5107671;28;20032;-69
2022/07/07 04:03:49;;;;;;;6.07;1.45;;;16.10;99.90;;;;;;5093413;28;20036;-69
2022/07/07 04:06:15;;;;;;;4.75;1.67;;;16.10;99.90;;;;;;5079199;28;20067;-70
2022/07/07 04:08:41;;;;;;;7.10;1.63;;;16.10;99.90;;;;;;5108393;28;20051;-69
2022/07/07 04:11:06;;;;;;;6.10;1.67;;;16.00;99.90;;;;;;5088675;28;20055;-69
2022/07/07 04:13:32;;;;;;;6.10;1.63;;;16.00;99.90;;;;;;5089449;28;20093;-69
2022/07/07 04:15:57;;;;;;;6.82;1.30;;;16.00;99.90;;;;;;5091111;28;20498;-69
2022/07/07 04:18:23;;;;;;;9.40;1.65;;;16.10;99.90;;;;;;5094168;28;20414;-69
2022/07/07 04:20:49;;;;;;;6.88;1.52;;;16.00;99.90;;;;;;5113961;28;20153;-69
2022/07/07 04:23:14;;;;;;;7.03;1.42;;;16.00;99.90;;;;;;5094417;28;20618;-69
2022/07/07 04:25:40;;;;;;;6.63;1.80;;;16.00;99.90;;;;;;5076587;28;20588;-69
2022/07/07 04:28:06;;;;;;;8.77;1.58;;;16.10;99.90;;;;;;5108436;28;20112;-69
2022/07/07 04:30:32;;;;;;;7.70;1.35;;;16.10;99.90;;;;;;5104489;28;20077;-69
2022/07/07 04:32:57;;;;;;;7.68;1.50;;;16.10;99.90;;;;;;5090126;28;20047;-69
2022/07/07 04:35:23;;;;;;;7.15;1.85;;;16.10;99.90;;;;;;5091013;28;20485;-69
2022/07/07 04:37:49;;;;;;;11.13;2.03;;;16.00;99.90;;;;;;5078790;28;20043;-69
2022/07/07 04:40:14;;;;;;;7.90;1.45;;;16.00;99.90;;;;;;5068393;28;20032;-69
2022/07/07 04:42:40;;;;;;;9.35;1.92;;;16.00;99.90;;;;;;5082782;28;20476;-69
2022/07/07 04:45:06;;;;;;;7.68;1.40;;;16.00;99.90;;;;;;5090082;28;20469;-69
2022/07/07 04:47:31;;;;;;;8.27;1.90;;;16.00;99.90;;;;;;5091770;28;20036;-69
2022/07/07 04:49:57;;;;;;;11.55;1.90;;;16.00;99.90;;;;;;5093501;28;20160;-69
2022/07/07 04:52:23;;;;;;;7.28;1.75;;;16.00;99.90;;;;;;5094690;28;20048;-69
2022/07/07 04:54:48;;;;;;;6.32;1.50;;;16.10;99.90;;;;;;5092963;28;20466;-69
2022/07/07 04:57:14;;;;;;;4.95;1.60;;;16.00;99.90;;;;;;5086158;28;20044;-69
2022/07/07 04:59:40;;;;;;;7.18;1.20;;;16.10;99.90;;;;;;5099980;28;20066;-69
2022/07/07 05:02:06;;;;;;;7.75;1.60;;;16.20;99.90;;;;;;5092373;28;20401;-69
2022/07/07 05:04:32;;;;;;;6.53;1.30;;;16.10;99.90;;;;;;5074117;28;20323;-69
2022/07/07 05:06:58;;;;;;;7.88;1.52;;;16.10;99.90;;;;;;5109198;28;20477;-69
2022/07/07 05:09:23;;;;;;;3.58;1.23;;;16.20;99.90;;;;;;5089336;28;20030;-69
2022/07/07 05:11:49;;;;;;;5.88;1.23;;;16.20;99.90;;;;;;5092089;27;20084;-69
2022/07/07 05:14:14;;;;;;;7.85;1.50;;;16.30;99.90;;;;;;5097717;28;20501;-69
2022/07/07 05:16:40;;;;;;;5.10;1.33;;;16.40;99.90;;;;;;5109830;28;20449;-69
2022/07/07 05:19:08;;;;;;;6.70;1.52;;;16.60;99.90;;;;;;5092489;28;20361;-69
2022/07/07 05:21:33;;;;;;;5.45;1.60;;;16.60;99.90;;;;;;5100711;28;20075;-69
2022/07/07 05:23:59;;;;;;;3.42;1.10;;;16.60;99.90;;;;;;5109146;28;20083;-69
2022/07/07 05:26:24;;;;;;;7.45;1.40;;;16.70;99.90;;;;;;5081091;28;20036;-69
2022/07/07 05:28:50;;;;;;;8.18;1.52;;;16.70;99.90;;;;;;5075939;28;20039;-69
2022/07/07 05:31:16;;;;;;;5.15;1.30;;;16.80;99.90;;;;;;5082988;28;20135;-69
2022/07/07 05:33:42;;;;;;;7.60;1.48;;;17.00;99.90;;;;;;5086769;28;20043;-69
2022/07/07 05:36:08;;;;;;;8.95;1.35;;;17.10;99.90;;;;;;5090196;28;20044;-69
2022/07/07 05:38:34;;;;;;;7.55;1.50;;;16.90;99.90;;;;;;5098772;28;20035;-69
2022/07/07 05:41:00;;;;;;;10.02;1.90;;;16.70;99.90;;;;;;5088154;28;20078;-69
2022/07/07 05:43:27;;;;;;;7.00;1.55;;;16.50;99.90;;;;;;5072732;28;20068;-70
2022/07/07 05:45:53;;;;;;;9.32;1.73;;;16.40;99.90;;;;;;5090934;28;20063;-69
2022/07/07 05:48:18;;;;;;;7.25;1.63;;;16.20;99.90;;;;;;5093886;28;20478;-69
2022/07/07 05:50:44;;;;;;;9.55;1.80;;;16.20;99.90;;;;;;5080340;28;20036;-69
2022/07/07 05:53:11;;;;;;;10.20;2.35;;;16.10;99.90;;;;;;5076003;28;20040;-69
2022/07/07 05:55:36;;;;;;;4.40;1.38;;;16.10;99.90;;;;;;5092768;28;20051;-69
2022/07/07 05:58:02;;;;;;;10.18;2.28;;;16.10;99.90;;;;;;5075264;28;20089;-69
2022/07/07 06:00:28;;;;;;;6.38;1.63;;;16.10;99.90;;;;;;5071415;28;20048;-69
2022/07/07 06:02:53;;;;;;;6.47;1.85;;;16.10;99.90;;;;;;5069740;28;20047;-69
2022/07/07 06:05:19;;;;;;;11.70;2.20;;;16.10;99.90;;;;;;5080294;28;20632;-69
2022/07/07 06:07:45;;;;;;;8.77;2.30;;;16.00;99.90;;;;;;5087100;28;20074;-69
2022/07/07 06:10:11;;;;;;;8.15;2.28;;;16.00;99.90;;;;;;5090944;28;20036;-69
2022/07/07 06:12:41;;;;;;;10.35;2.30;;;15.90;99.90;;;;;;5073066;28;20044;-69
2022/07/07 06:15:07;;;;;;;8.35;1.88;;;16.00;99.90;;;;;;5090067;28;20040;-69
2022/07/07 06:17:33;;;;;;;9.43;2.20;;;16.60;99.90;;;;;;5093167;28;20051;-70
2022/07/07 06:19:58;;;;;;;8.73;1.90;;;18.10;99.90;;;;;;5065327;28;20047;-70
2022/07/07 06:22:25;;;;;;;7.78;1.85;;;18.50;99.90;;;;;;5073430;28;20421;-70
2022/07/07 06:24:51;;;;;;;10.05;1.90;;;18.50;99.90;;;;;;5078907;28;20032;-70
2022/07/07 06:27:16;;;;;;;6.13;1.80;;;18.20;99.90;;;;;;5074371;28;20217;-69
2022/07/07 06:29:42;;;;;;;7.60;1.67;;;18.70;99.90;;;;;;5073300;28;20071;-71
2022/07/07 06:32:07;;;;;;;7.50;1.90;;;20.20;99.90;;;;;;5092616;28;20092;-70
2022/07/07 06:34:33;;;;;;;8.00;1.85;;;21.80;99.90;;;;;;5091814;28;20662;-71
2022/07/07 06:36:59;;;;;;;5.25;1.65;;;22.80;99.90;;;;;;5069071;28;20036;-70
2022/07/07 06:39:24;;;;;;;7.78;1.60;;;22.30;99.90;;;;;;5072177;28;20644;-69
2022/07/07 06:41:50;;;;;;;10.07;1.70;;;21.60;99.90;;;;;;5077383;28;20051;-70
2022/07/07 06:44:16;;;;;;;9.25;1.30;;;20.60;99.90;;;;;;5072234;28;20055;-69
2022/07/07 06:46:41;;;;;;;7.63;1.60;;;19.80;99.90;;;;;;5096731;28;20046;-69
2022/07/07 06:49:07;;;;;;;8.25;1.90;;;19.20;99.90;;;;;;5080336;28;20040;-69
2022/07/07 06:51:33;;;;;;;5.75;1.70;;;18.80;99.90;;;;;;5069462;28;20046;-70
2022/07/07 06:53:59;;;;;;;6.28;1.75;;;18.50;99.90;;;;;;5077305;28;20052;-70
2022/07/07 06:56:24;;;;;;;5.22;1.50;;;18.70;99.90;;;;;;5090354;28;20545;-70
2022/07/07 06:58:50;;;;;;;8.23;1.40;;;20.20;99.90;;;;;;5090323;28;20046;-70
2022/07/07 07:01:16;;;;;;;4.57;1.42;;;21.70;99.90;;;;;;5090424;28;20035;-70
2022/07/07 07:03:41;;;;;;;6.40;1.23;;;22.30;99.90;;;;;;5073893;28;20032;-70
2022/07/07 07:06:07;;;;;;;4.60;1.17;;;22.20;99.90;;;;;;5088142;28;20159;-70
2022/07/07 07:08:33;;;;;;;4.93;1.15;;;22.90;99.90;;;;;;5093449;22;20126;-72
2022/07/07 07:10:59;;;;;;;5.82;1.10;;;22.90;99.80;;;;;;5108202;27;20073;-72
2022/07/07 07:13:24;;;;;;;3.88;1.35;;;22.10;99.90;;;;;;5115286;27;20038;-72
2022/07/07 07:15:50;;;;;;;5.05;1.30;;;21.10;99.90;;;;;;5125752;27;20042;-71
2022/07/07 07:18:15;;;;;;;3.28;0.98;;;20.60;99.90;;;;;;5131896;27;20035;-72
2022/07/07 07:20:41;;;;;;;3.15;0.70;;;18.90;99.90;;;;;;5143199;27;20115;-71
2022/07/07 07:23:07;;;;;;;2.38;0.80;;;18.80;99.90;;;;;;5127954;27;20483;-72
2022/07/07 07:25:32;;;;;;;3.65;0.85;;;19.40;99.90;;;;;;5126101;27;20530;-71
2022/07/07 07:27:58;;;;;;;3.10;0.65;;;19.60;99.90;;;;;;5127483;27;20433;-71
2022/07/07 07:30:24;;;;;;;3.00;0.63;;;20.50;99.90;;;;;;5116888;27;20031;-71
2022/07/07 07:32:50;;;;;;;4.90;0.88;;;21.40;99.90;;;;;;5132387;27;20046;-71
2022/07/07 07:35:15;;;;;;;3.67;0.80;;;21.20;99.90;;;;;;5128333;27;20084;-71
2022/07/07 07:37:42;;;;;;;2.67;0.77;;;20.70;99.90;;;;;;5115741;27;20492;-72
2022/07/07 07:40:09;;;;;;;3.33;0.98;;;20.40;99.90;;;;;;5130889;27;20046;-71
2022/07/07 07:42:39;;;;;;;2.60;0.90;;;20.40;99.90;;;;;;5136845;27;20041;-71
2022/07/07 07:45:11;;;;;;;2.72;0.50;;;20.30;99.90;;;;;;5127464;27;20092;-71
2022/07/07 07:47:41;;;;;;;2.85;0.60;;;20.10;99.90;;;;;;5136946;27;20127;-71
2022/07/07 07:50:12;;;;;;;3.17;0.88;;;20.40;99.90;;;;;;5132586;27;20035;-72
2022/07/07 07:52:40;;;;;;;2.20;0.70;;;20.80;99.90;;;;;;5154257;27;20050;-71
2022/07/07 07:55:08;;;;;;;2.38;0.65;;;21.30;99.90;;;;;;5145940;27;20043;-72
2022/07/07 07:57:34;;;;;;;5.45;1.00;;;21.30;99.90;;;;;;5133842;27;20383;-72
2022/07/07 08:00:00;;;;;;;2.53;0.60;;;20.30;99.90;;;;;;5118068;27;20030;-71
2022/07/07 08:02:26;;;;;;;3.28;0.80;;;20.10;99.90;;;;;;5132705;27;20188;-72
2022/07/07 08:04:51;;;;;;;1.73;0.65;;;19.50;99.90;;;;;;5102112;27;20050;-72
2022/07/07 08:07:17;;;;;;;4.55;0.85;;;19.10;99.90;;;;;;5125201;27;20039;-72
2022/07/07 08:09:44;;;;;;;2.58;0.52;;;18.60;99.90;;;;;;5123525;27;20043;-71
2022/07/07 08:12:10;;;;;;;1.58;0.47;;;18.70;99.90;;;;;;5143111;27;20847;-71
2022/07/07 08:14:35;;;;;;;1.92;0.70;;;18.60;99.90;;;;;;5128546;27;20051;-72
2022/07/07 08:17:01;;;;;;;2.08;0.50;;;18.80;99.90;;;;;;5119226;27;20555;-71
2022/07/07 08:19:27;;;;;;;4.35;0.80;;;18.80;99.90;;;;;;5125444;27;20053;-71
2022/07/07 08:21:53;;;;;;;5.00;0.90;;;18.90;99.90;;;;;;5137935;27;20098;-71
2022/07/07 08:24:18;;;;;;;5.50;1.02;;;18.90;99.90;;;;;;5135057;27;20170;-72
2022/07/07 08:26:45;;;;;;;2.60;0.90;;;19.00;99.90;;;;;;5133381;27;20135;-71
2022/07/07 08:29:11;;;;;;;2.65;0.70;;;18.90;99.90;;;;;;5133756;27;20092;-71
2022/07/07 08:31:36;;;;;;;5.57;0.80;;;19.00;99.90;;;;;;5115498;27;20496;-71
2022/07/07 08:34:03;;;;;;;3.60;0.95;;;19.20;99.90;;;;;;5105349;27;20095;-72
2022/07/07 08:36:30;;;;;;;3.15;0.80;;;19.00;99.90;;;;;;5154781;27;20134;-72
2022/07/07 08:38:56;;;;;;;5.18;1.13;;;19.00;99.90;;;;;;5126149;27;20122;-73
2022/07/07 08:41:22;;;;;;;2.10;0.82;;;18.90;99.90;;;;;;5132279;27;20107;-72
2022/07/07 08:43:49;;;;;;;5.88;1.40;;;18.80;99.90;;;;;;5134276;27;20043;-72
2022/07/07 08:46:14;;;;;;;2.97;0.95;;;18.60;99.90;;;;;;5135470;27;20471;-72
2022/07/07 08:48:40;;;;;;;2.90;1.05;;;18.60;99.90;;;;;;5129593;27;20155;-71
2022/07/07 08:51:06;;;;;;;3.10;0.93;;;18.50;99.90;;;;;;5113651;27;20043;-71
2022/07/07 08:53:36;;;;;;;4.35;1.17;;;18.70;99.90;;;;;;5131728;27;20528;-71
2022/07/07 08:56:06;;;;;;;4.53;0.93;;;19.10;99.90;;;;;;5135414;27;20043;-71
2022/07/07 08:58:35;;;;;;;6.35;1.65;;;19.40;99.90;;;;;;5126116;27;20039;-71
2022/07/07 09:01:02;;;;;;;5.13;1.42;;;19.70;99.90;;;;;;5114079;27;20143;-72
2022/07/07 09:03:27;;;;;;;6.53;1.42;;;19.70;99.90;;;;;;5141037;27;20391;-71
2022/07/07 09:05:56;;;;;;;5.57;1.52;;;19.50;99.90;;;;;;5145485;27;20034;-71
2022/07/07 09:08:23;;;;;;;8.38;1.25;;;19.20;99.90;;;;;;5111997;27;20061;-72
2022/07/07 09:10:49;;;;;;;4.63;1.30;;;19.40;99.90;;;;;;5104595;27;20054;-71
2022/07/07 09:13:29;;;;;;;5.85;1.50;;;19.40;99.90;;;;;;5135983;27;20047;-72
2022/07/07 09:15:58;;;;;;;5.32;1.80;;;19.20;99.90;;;;;;5131983;27;20498;-71
2022/07/07 09:18:30;;;;;;;3.75;1.70;;;19.30;99.90;;;;;;5115610;27;20054;-71
2022/07/07 09:20:57;;;;;;;5.68;1.65;;;19.20;99.90;;;;;;5119436;27;20528;-72
2022/07/07 09:23:23;;;;;;;6.43;2.60;;;19.10;99.90;;;;;;5133996;27;20042;-72
2022/07/07 09:25:48;;;;;;;4.10;1.45;;;19.30;99.90;;;;;;5128701;27;20045;-72
2022/07/07 09:28:14;;;;;;;4.53;1.40;;;19.30;99.90;;;;;;5102219;27;20034;-72
2022/07/07 09:30:45;;;;;;;3.55;0.80;;;19.00;99.90;;;;;;5131756;27;20048;-72
2022/07/07 09:33:12;;;;;;;3.53;1.02;;;18.80;99.90;;;;;;5134899;27;20035;-72
2022/07/07 09:38:24;;;;;;;2.55;0.90;;;18.30;99.90;;;;;;5146911;27;20054;-72
2022/07/07 09:41:03;;;;;;;3.55;0.80;;;18.70;99.90;;;;;;5132993;27;20129;-72
2022/07/07 09:43:34;;;;;;;3.35;1.17;;;19.00;99.90;;;;;;5133334;27;20473;-72
2022/07/07 09:46:09;;;;;;;2.87;1.10;;;19.30;99.90;;;;;;5127938;27;20387;-72
2022/07/07 09:48:36;;;;;;;2.28;1.00;;;19.50;99.90;;;;;;5123184;27;20288;-72
2022/07/07 09:51:18;;;;;;;4.82;1.10;;;19.70;99.90;;;;;;5120135;27;20515;-71
2022/07/07 09:53:56;;;;;;;3.25;1.08;;;19.70;99.90;;;;;;5124557;27;20039;-72
2022/07/07 09:56:23;;;;;;;2.92;1.20;;;19.70;99.90;;;;;;5128730;27;20047;-72
2022/07/07 09:58:49;;;;;;;5.30;1.58;;;19.90;99.90;;;;;;5123626;27;20654;-71
2022/07/07 10:01:17;;;;;;;4.43;1.02;;;19.80;99.90;;;;;;5118069;27;20084;-72
2022/07/07 10:03:43;;;;;;;3.40;1.00;;;19.70;99.90;;;;;;5114032;27;20133;-72
2022/07/07 10:06:12;;;;;;;2.95;1.00;;;19.50;99.90;;;;;;5131063;27;20031;-72
2022/07/07 10:08:45;;;;;;;6.70;1.33;;;19.10;99.90;;;;;;5137412;27;20512;-71
2022/07/07 10:11:16;;;;;;;4.38;1.30;;;19.00;99.90;;;;;;5123580;27;20043;-71
2022/07/07 10:13:44;;;;;;;4.10;1.17;;;18.80;99.90;;;;;;5151218;27;20050;-71
2022/07/07 10:16:10;;;;;;;4.22;1.15;;;18.70;99.90;;;;;;5134004;27;20038;-71
2022/07/07 10:18:36;;;;;;;4.68;1.30;;;18.70;99.90;;;;;;5143837;27;20408;-71
2022/07/07 10:21:03;;;;;;;3.83;1.13;;;18.50;99.90;;;;;;5111611;27;20039;-71
2022/07/07 10:23:32;;;;;;;3.15;0.85;;;18.70;99.90;;;;;;5131248;27;20064;-71
2022/07/07 10:26:05;;;;;;;2.72;0.80;;;18.80;99.90;;;;;;5116309;27;20035;-71
2022/07/07 10:28:59;;;;;;;2.30;0.80;;;19.10;99.90;;;;;;5140209;27;20049;-71
2022/07/07 10:31:27;;;;;;;5.15;1.00;;;19.40;99.90;;;;;;5136837;27;20506;-71
2022/07/07 10:34:04;;;;;;;3.90;0.82;;;19.50;99.90;;;;;;5125511;27;20061;-71
2022/07/07 10:36:49;;;;;;;4.47;1.10;;;19.70;99.90;;;;;;5112994;27;20092;-71
2022/07/07 10:39:15;;;;;;;6.53;1.27;;;19.50;99.90;;;;;;5148612;27;20085;-71
2022/07/07 10:41:47;;;;;;;3.80;1.08;;;19.40;99.90;;;;;;5140806;27;20391;-71
2022/07/07 10:44:12;;;;;;;3.38;1.05;;;19.60;99.90;;;;;;5131161;27;20069;-71
2022/07/07 10:46:39;;;;;;;5.22;1.23;;;19.40;99.90;;;;;;5150569;27;20129;-72
2022/07/07 10:49:12;;;;;;;6.57;1.50;;;19.20;99.90;;;;;;5151987;27;20513;-71
2022/07/07 10:51:55;;;;;;;5.03;1.60;;;18.70;99.90;;;;;;5133751;27;20043;-71
2022/07/07 10:54:36;;;;;;;6.28;1.65;;;18.40;99.90;;;;;;5150566;27;20034;-71
2022/07/07 10:57:01;;;;;;;8.15;1.85;;;18.40;99.90;;;;;;5151842;27;20043;-71
2022/07/07 10:59:28;;;;;;;6.10;1.65;;;18.40;99.90;;;;;;5112869;27;20455;-71
2022/07/07 11:02:03;;;;;;;8.68;1.48;;;18.40;99.90;;;;;;5112818;28;20043;-71
2022/07/07 11:04:44;;;;;;;8.93;1.63;;;18.60;99.90;;;;;;5136994;27;20049;-71
2022/07/07 11:07:18;;;;;;;6.15;1.60;;;19.00;99.90;;;;;;5116711;27;20050;-71
2022/07/07 11:10:03;;;;;;;7.85;1.73;;;19.20;99.90;;;;;;5099873;27;20055;-71
2022/07/07 11:12:53;;;;;;;13.02;2.60;;;18.90;99.90;;;;;;5124502;27;20135;-71
2022/07/07 11:15:21;;;;;;;10.23;2.33;;;18.80;99.90;;;;;;5152152;27;20035;-71
2022/07/07 11:17:53;;;;;;;15.52;2.25;;;18.70;99.90;;;;;;5129048;27;20432;-71
2022/07/07 11:20:20;;;;;;;14.15;2.70;;;18.60;99.90;;;;;;5140493;27;20038;-71
2022/07/07 11:22:50;;;;;;;8.75;1.80;;;18.70;99.90;;;;;;5115227;28;20127;-71
2022/07/07 11:25:19;;;;;;;11.90;2.60;;;18.90;99.90;;;;;;5113245;28;20388;-71
2022/07/07 11:27:46;;;;;;;12.63;2.05;;;19.00;99.90;;;;;;5096578;28;20397;-71
2022/07/07 11:30:12;;;;;;;9.57;2.20;;;19.00;99.90;;;;;;5096439;28;20116;-71
2022/07/07 11:32:40;;;;;;;10.88;2.50;;;18.70;99.90;;;;;;5131482;28;20255;-71
2022/07/07 11:35:11;;;;;;;12.50;3.50;;;18.40;99.90;;;;;;5112502;28;20469;-71
2022/07/07 11:37:39;;;;;;;8.73;2.67;;;18.30;99.90;;;;;;5115980;28;20051;-71
2022/07/07 11:40:24;;;;;;;7.20;2.60;;;18.00;99.90;;;;;;5126303;27;20057;-71
2022/07/07 11:42:50;;;;;;;9.95;2.30;;;17.70;99.90;;;;;;5150533;27;20054;-72
2022/07/07 11:45:25;;;;;;;13.35;3.10;;;18.10;99.90;;;;;;5095228;28;20051;-71
2022/07/07 11:47:52;;;;;;;11.18;1.90;;;18.20;99.90;;;;;;5095253;28;20042;-70
2022/07/07 11:50:18;;;;;;;11.75;2.33;;;18.20;99.90;;;;;;5112833;28;20405;-71
2022/07/07 11:52:56;;;;;;;12.57;1.85;;;18.30;99.90;;;;;;5111837;27;20047;-71
2022/07/07 11:55:23;;;;;;;8.00;1.70;;;18.50;99.90;;;;;;5122559;28;20410;-71
2022/07/07 11:57:57;;;;;;;11.18;2.10;;;18.60;99.90;;;;;;5136727;27;20046;-71
2022/07/07 12:00:37;;;;;;;8.88;2.17;;;18.60;99.90;;;;;;5130920;27;20039;-71
2022/07/07 12:03:05;;;;;;;6.95;1.67;;;18.90;99.90;;;;;;5137156;27;20058;-71
2022/07/07 12:05:33;;;;;;;9.32;2.20;;;19.10;99.80;;;;;;5130023;27;20365;-71
2022/07/07 12:08:01;;;;;;;11.95;1.60;;;19.20;99.40;;;;;;5132788;27;20027;-69
2022/07/07 12:10:31;;;;;;;5.80;1.73;;;19.30;99.90;;;;;;5116904;27;20078;-69
2022/07/07 12:12:59;;;;;;;6.53;1.98;;;19.30;99.10;;;;;;5118656;27;20084;-70
2022/07/07 12:15:32;;;;;;;7.55;1.55;;;19.20;97.50;;;;;;5129583;27;20468;-70
2022/07/07 12:17:58;;;;;;;8.93;1.80;;;19.60;99.90;;;;;;5113941;27;20062;-70
2022/07/07 12:20:24;;;;;;;6.78;1.77;;;19.70;98.30;;;;;;5129336;27;20041;-70
2022/07/07 12:22:57;;;;;;;6.50;1.50;;;19.60;98.10;;;;;;5124603;27;20024;-70
2022/07/07 12:25:25;;;;;;;10.20;1.83;;;19.60;98.40;;;;;;5123620;27;20094;-70
2022/07/07 12:28:02;;;;;;;5.38;1.67;;;19.70;96.90;;;;;;5126531;27;20551;-70
2022/07/07 12:30:31;;;;;;;6.78;1.70;;;19.50;96.20;;;;;;5126216;27;20480;-70
2022/07/07 12:32:58;;;;;;;10.40;2.45;;;19.80;98.90;;;;;;5120988;27;20043;-70
2022/07/07 12:35:34;;;;;;;9.50;2.38;;;19.60;97.60;;;;;;5103337;27;20046;-71
2022/07/07 12:38:03;;;;;;;10.00;2.17;;;19.50;99.00;;;;;;5116066;27;20062;-70
2022/07/07 12:40:30;;;;;;;9.05;2.17;;;19.20;99.60;;;;;;5125551;27;20043;-70
2022/07/07 12:42:56;;;;;;;12.38;2.75;;;19.20;99.90;;;;;;5123546;27;20093;-70
2022/07/07 12:45:22;;;;;;;12.00;2.83;;;19.30;99.90;;;;;;5131410;27;20070;-70
2022/07/07 12:47:50;;;;;;;10.35;2.53;;;19.20;99.90;;;;;;5124886;27;20036;-72
2022/07/07 12:50:17;;;;;;;9.60;2.67;;;19.20;99.90;;;;;;5134265;27;20041;-71